sensor_id;sensor_type;location;lat;lon;timestamp;temperature;humidity
70386;DHT22;57804;55.650;37.500;2022-07-06T10:02:04;33.06;40.26
70386;DHT22;57804;55.650;37.500;2022-07-06T10:04:31;33.61;39.82
70386;DHT22;57804;55.650;37.500;2022-07-06T10:06:58;33.73;39.61
70386;DHT22;57804;55.650;37.500;2022-07-06T10:09:26;33.77;39.46
70386;DHT22;57804;55.650;37.500;2022-07-06T10:11:58;33.77;39.77
70386;DHT22;57804;55.650;37.500;2022-07-06T10:14:26;33.40;40.50
70386;DHT22;57804;55.650;37.500;2022-07-06T10:16:56;33.73;39.64
70386;DHT22;57804;55.650;37.500;2022-07-06T10:26:45;35.14;37.46
70386;DHT22;57804;55.650;37.500;2022-07-06T10:29:12;35.59;36.25
70386;DHT22;57804;55.650;37.500;2022-07-06T10:34:15;36.35;34.93
70386;DHT22;57804;55.650;37.500;2022-07-06T10:36:43;36.57;34.25
70386;DHT22;57804;55.650;37.500;2022-07-06T10:39:10;36.33;34.32
70386;DHT22;57804;55.650;37.500;2022-07-06T10:41:56;35.82;34.96
70386;DHT22;57804;55.650;37.500;2022-07-06T10:44:26;36.21;33.01
70386;DHT22;57804;55.650;37.500;2022-07-06T10:46:54;36.90;32.52
70386;DHT22;57804;55.650;37.500;2022-07-06T10:49:22;37.88;30.67
70386;DHT22;57804;55.650;37.500;2022-07-06T10:51:53;37.62;29.54
70386;DHT22;57804;55.650;37.500;2022-07-06T10:54:23;37.96;29.09
70386;DHT22;57804;55.650;37.500;2022-07-06T10:56:50;38.23;27.82
70386;DHT22;57804;55.650;37.500;2022-07-06T10:59:22;38.20;28.54
70386;DHT22;57804;55.650;37.500;2022-07-06T11:02:14;38.43;30.50
70386;DHT22;57804;55.650;37.500;2022-07-06T11:04:46;37.72;29.90
70386;DHT22;57804;55.650;37.500;2022-07-06T11:07:17;38.34;29.15
70386;DHT22;57804;55.650;37.500;2022-07-06T11:09:59;38.26;30.05
70386;DHT22;57804;55.650;37.500;2022-07-06T11:22:21;34.78;33.22
70386;DHT22;57804;55.650;37.500;2022-07-06T11:29:44;36.29;31.66
70386;DHT22;57804;55.650;37.500;2022-07-06T11:32:12;37.25;30.62
70386;DHT22;57804;55.650;37.500;2022-07-06T11:34:43;38.61;30.92
70386;DHT22;57804;55.650;37.500;2022-07-06T11:37:12;37.99;29.03
70386;DHT22;57804;55.650;37.500;2022-07-06T11:39:40;37.39;29.71
70386;DHT22;57804;55.650;37.500;2022-07-06T11:42:09;37.54;29.49
70386;DHT22;57804;55.650;37.500;2022-07-06T11:44:36;36.73;29.70
70386;DHT22;57804;55.650;37.500;2022-07-06T11:47:03;36.02;30.50
70386;DHT22;57804;55.650;37.500;2022-07-06T11:49:34;35.20;31.78
70386;DHT22;57804;55.650;37.500;2022-07-06T11:52:09;34.86;33.13
70386;DHT22;57804;55.650;37.500;2022-07-06T11:57:03;34.00;34.89
70386;DHT22;57804;55.650;37.500;2022-07-06T11:59:34;33.77;35.49
70386;DHT22;57804;55.650;37.500;2022-07-06T12:02:11;34.59;34.64
70386;DHT22;57804;55.650;37.500;2022-07-06T12:04:42;34.42;35.04
70386;DHT22;57804;55.650;37.500;2022-07-06T12:07:14;34.15;35.55
70386;DHT22;57804;55.650;37.500;2022-07-06T12:09:44;33.84;36.75
70386;DHT22;57804;55.650;37.500;2022-07-06T12:12:11;33.19;38.00
70386;DHT22;57804;55.650;37.500;2022-07-06T12:17:10;32.91;38.61
70386;DHT22;57804;55.650;37.500;2022-07-06T12:34:26;35.53;34.10
70386;DHT22;57804;55.650;37.500;2022-07-06T12:36:57;35.51;33.30
70386;DHT22;57804;55.650;37.500;2022-07-06T12:39:28;34.69;34.67
70386;DHT22;57804;55.650;37.500;2022-07-06T12:42:05;34.14;36.17
70386;DHT22;57804;55.650;37.500;2022-07-06T12:44:42;33.53;38.96
70386;DHT22;57804;55.650;37.500;2022-07-06T13:02:22;31.35;43.03
70386;DHT22;57804;55.650;37.500;2022-07-06T13:05:11;31.05;43.27
70386;DHT22;57804;55.650;37.500;2022-07-06T13:07:39;30.68;44.60
70386;DHT22;57804;55.650;37.500;2022-07-06T13:10:12;31.26;43.26
70386;DHT22;57804;55.650;37.500;2022-07-06T13:12:40;32.07;41.54
70386;DHT22;57804;55.650;37.500;2022-07-06T13:15:07;32.45;40.34
70386;DHT22;57804;55.650;37.500;2022-07-06T13:17:34;32.71;39.80
70386;DHT22;57804;55.650;37.500;2022-07-06T13:22:29;33.26;39.08
70386;DHT22;57804;55.650;37.500;2022-07-06T13:34:40;33.67;38.78
70386;DHT22;57804;55.650;37.500;2022-07-06T13:44:27;34.38;38.25
70386;DHT22;57804;55.650;37.500;2022-07-06T13:46:53;34.53;38.42
70386;DHT22;57804;55.650;37.500;2022-07-06T13:51:45;35.00;37.09
70386;DHT22;57804;55.650;37.500;2022-07-06T13:54:14;34.82;36.94
70386;DHT22;57804;55.650;37.500;2022-07-06T13:56:41;34.79;36.86
70386;DHT22;57804;55.650;37.500;2022-07-06T13:59:07;34.80;37.16
70386;DHT22;57804;55.650;37.500;2022-07-06T14:01:33;34.92;37.25
70386;DHT22;57804;55.650;37.500;2022-07-06T14:06:26;35.58;36.55
70386;DHT22;57804;55.650;37.500;2022-07-06T14:08:52;35.53;36.64
70386;DHT22;57804;55.650;37.500;2022-07-06T14:11:18;35.70;36.57
70386;DHT22;57804;55.650;37.500;2022-07-06T14:13:45;35.54;36.27
70386;DHT22;57804;55.650;37.500;2022-07-06T14:16:17;35.21;37.00
70386;DHT22;57804;55.650;37.500;2022-07-06T14:18:43;34.75;37.67
70386;DHT22;57804;55.650;37.500;2022-07-06T14:21:10;34.00;38.71
70386;DHT22;57804;55.650;37.500;2022-07-06T14:28:28;31.84;41.89
70386;DHT22;57804;55.650;37.500;2022-07-06T14:30:54;31.59;41.99
70386;DHT22;57804;55.650;37.500;2022-07-06T14:33:21;31.72;41.93
70386;DHT22;57804;55.650;37.500;2022-07-06T14:35:49;32.24;40.77
70386;DHT22;57804;55.650;37.500;2022-07-06T14:38:18;32.58;40.17
70386;DHT22;57804;55.650;37.500;2022-07-06T14:40:45;32.78;39.84
70386;DHT22;57804;55.650;37.500;2022-07-06T14:43:12;32.92;39.82
70386;DHT22;57804;55.650;37.500;2022-07-06T14:45:38;33.19;39.15
70386;DHT22;57804;55.650;37.500;2022-07-06T14:48:05;33.42;38.38
70386;DHT22;57804;55.650;37.500;2022-07-06T15:00:27;33.86;37.20
70386;DHT22;57804;55.650;37.500;2022-07-06T15:02:53;33.93;37.28
70386;DHT22;57804;55.650;37.500;2022-07-06T15:05:19;34.05;37.37
70386;DHT22;57804;55.650;37.500;2022-07-06T15:12:38;34.58;37.08
70386;DHT22;57804;55.650;37.500;2022-07-06T15:15:05;34.62;37.11
70386;DHT22;57804;55.650;37.500;2022-07-06T15:17:31;34.32;37.46
70386;DHT22;57804;55.650;37.500;2022-07-06T15:20:00;33.96;37.89
70386;DHT22;57804;55.650;37.500;2022-07-06T15:51:43;31.73;43.94
70386;DHT22;57804;55.650;37.500;2022-07-06T15:54:10;31.41;45.23
70386;DHT22;57804;55.650;37.500;2022-07-06T15:56:38;30.94;46.68
70386;DHT22;57804;55.650;37.500;2022-07-06T15:59:05;30.61;47.60
70386;DHT22;57804;55.650;37.500;2022-07-06T16:01:31;30.40;48.69
70386;DHT22;57804;55.650;37.500;2022-07-06T16:03:58;30.39;49.00
70386;DHT22;57804;55.650;37.500;2022-07-06T16:06:24;30.37;48.91
70386;DHT22;57804;55.650;37.500;2022-07-06T16:08:50;30.29;48.51
70386;DHT22;57804;55.650;37.500;2022-07-06T16:11:16;30.30;48.31
70386;DHT22;57804;55.650;37.500;2022-07-06T16:13:46;30.10;48.56
70386;DHT22;57804;55.650;37.500;2022-07-06T16:16:13;29.64;49.17
70386;DHT22;57804;55.650;37.500;2022-07-06T16:18:40;29.48;49.71
70386;DHT22;57804;55.650;37.500;2022-07-06T16:21:07;29.09;50.41
70386;DHT22;57804;55.650;37.500;2022-07-06T16:23:33;28.83;50.70
70386;DHT22;57804;55.650;37.500;2022-07-06T16:26:00;28.58;50.63
70386;DHT22;57804;55.650;37.500;2022-07-06T16:28:26;28.20;51.80
70386;DHT22;57804;55.650;37.500;2022-07-06T16:30:52;27.96;52.16
70386;DHT22;57804;55.650;37.500;2022-07-06T16:33:19;27.77;52.69
70386;DHT22;57804;55.650;37.500;2022-07-06T16:35:45;27.46;53.27
70386;DHT22;57804;55.650;37.500;2022-07-06T16:38:11;27.23;53.90
70386;DHT22;57804;55.650;37.500;2022-07-06T16:43:04;26.51;55.53
70386;DHT22;57804;55.650;37.500;2022-07-06T16:45:30;26.20;55.15
70386;DHT22;57804;55.650;37.500;2022-07-06T16:47:56;25.79;56.80
70386;DHT22;57804;55.650;37.500;2022-07-06T16:50:23;25.45;57.55
70386;DHT22;57804;55.650;37.500;2022-07-06T16:52:51;25.24;58.28
70386;DHT22;57804;55.650;37.500;2022-07-06T16:55:18;25.00;60.03
70386;DHT22;57804;55.650;37.500;2022-07-06T16:57:44;24.90;59.11
70386;DHT22;57804;55.650;37.500;2022-07-06T17:00:11;24.76;60.37
70386;DHT22;57804;55.650;37.500;2022-07-06T17:02:38;24.66;60.24
70386;DHT22;57804;55.650;37.500;2022-07-06T17:05:04;24.51;61.09
70386;DHT22;57804;55.650;37.500;2022-07-06T17:07:30;24.36;61.35
70386;DHT22;57804;55.650;37.500;2022-07-06T17:09:57;24.19;61.52
70386;DHT22;57804;55.650;37.500;2022-07-06T17:12:24;24.05;62.08
70386;DHT22;57804;55.650;37.500;2022-07-06T17:14:50;23.90;62.66
70386;DHT22;57804;55.650;37.500;2022-07-06T17:17:16;23.75;64.02
70386;DHT22;57804;55.650;37.500;2022-07-06T17:19:43;23.57;64.62
70386;DHT22;57804;55.650;37.500;2022-07-06T17:22:09;23.40;65.88
70386;DHT22;57804;55.650;37.500;2022-07-06T17:24:35;23.19;67.45
70386;DHT22;57804;55.650;37.500;2022-07-06T17:27:02;23.01;68.74
70386;DHT22;57804;55.650;37.500;2022-07-06T17:29:28;22.81;70.03
70386;DHT22;57804;55.650;37.500;2022-07-06T17:31:55;22.65;70.22
70386;DHT22;57804;55.650;37.500;2022-07-06T17:34:21;22.62;71.46
70386;DHT22;57804;55.650;37.500;2022-07-06T17:36:48;22.68;72.81
70386;DHT22;57804;55.650;37.500;2022-07-06T17:39:14;22.68;72.07
70386;DHT22;57804;55.650;37.500;2022-07-06T17:41:40;22.65;71.61
70386;DHT22;57804;55.650;37.500;2022-07-06T17:44:06;22.67;72.96
70386;DHT22;57804;55.650;37.500;2022-07-06T17:46:33;22.74;73.84
70386;DHT22;57804;55.650;37.500;2022-07-06T17:48:59;22.79;73.97
70386;DHT22;57804;55.650;37.500;2022-07-06T17:51:25;22.69;74.54
70386;DHT22;57804;55.650;37.500;2022-07-06T17:53:54;22.68;75.15
70386;DHT22;57804;55.650;37.500;2022-07-06T17:56:21;22.68;73.79
70386;DHT22;57804;55.650;37.500;2022-07-06T17:58:47;22.61;74.29
70386;DHT22;57804;55.650;37.500;2022-07-06T18:01:14;22.48;76.46
70386;DHT22;57804;55.650;37.500;2022-07-06T18:03:41;22.51;76.87
70386;DHT22;57804;55.650;37.500;2022-07-06T18:06:07;22.51;76.80
70386;DHT22;57804;55.650;37.500;2022-07-06T18:08:34;22.55;77.57
70386;DHT22;57804;55.650;37.500;2022-07-06T18:11:03;22.57;79.83
70386;DHT22;57804;55.650;37.500;2022-07-06T18:13:29;22.53;79.24
70386;DHT22;57804;55.650;37.500;2022-07-06T18:15:56;22.51;79.13
70386;DHT22;57804;55.650;37.500;2022-07-06T18:18:23;22.53;80.41
70386;DHT22;57804;55.650;37.500;2022-07-06T18:20:52;22.41;81.38
70386;DHT22;57804;55.650;37.500;2022-07-06T18:23:20;22.36;81.30
70386;DHT22;57804;55.650;37.500;2022-07-06T18:25:51;22.32;81.26
70386;DHT22;57804;55.650;37.500;2022-07-06T18:28:18;22.29;81.35
70386;DHT22;57804;55.650;37.500;2022-07-06T18:30:46;22.32;81.61
70386;DHT22;57804;55.650;37.500;2022-07-06T18:33:13;22.39;81.44
70386;DHT22;57804;55.650;37.500;2022-07-06T18:35:39;22.48;80.13
70386;DHT22;57804;55.650;37.500;2022-07-06T18:38:06;22.55;79.70
70386;DHT22;57804;55.650;37.500;2022-07-06T18:40:33;22.62;78.55
70386;DHT22;57804;55.650;37.500;2022-07-06T18:43:02;22.69;79.11
70386;DHT22;57804;55.650;37.500;2022-07-06T18:45:29;22.72;79.42
70386;DHT22;57804;55.650;37.500;2022-07-06T18:47:55;22.76;78.29
70386;DHT22;57804;55.650;37.500;2022-07-06T18:50:25;22.78;79.01
70386;DHT22;57804;55.650;37.500;2022-07-06T18:52:51;22.75;79.46
70386;DHT22;57804;55.650;37.500;2022-07-06T18:55:17;22.76;78.28
70386;DHT22;57804;55.650;37.500;2022-07-06T18:57:44;22.78;77.91
70386;DHT22;57804;55.650;37.500;2022-07-06T19:00:10;22.82;77.05
70386;DHT22;57804;55.650;37.500;2022-07-06T19:02:37;22.90;73.95
70386;DHT22;57804;55.650;37.500;2022-07-06T19:05:04;22.94;73.43
70386;DHT22;57804;55.650;37.500;2022-07-06T19:07:30;22.95;69.80
70386;DHT22;57804;55.650;37.500;2022-07-06T19:09:56;22.95;70.80
70386;DHT22;57804;55.650;37.500;2022-07-06T19:12:25;22.98;68.10
70386;DHT22;57804;55.650;37.500;2022-07-06T19:14:51;23.01;67.72
70386;DHT22;57804;55.650;37.500;2022-07-06T19:17:21;23.02;67.18
70386;DHT22;57804;55.650;37.500;2022-07-06T19:19:48;23.02;66.03
70386;DHT22;57804;55.650;37.500;2022-07-06T19:22:14;23.05;65.77
70386;DHT22;57804;55.650;37.500;2022-07-06T19:24:41;23.08;65.87
70386;DHT22;57804;55.650;37.500;2022-07-06T19:27:07;23.08;66.61
70386;DHT22;57804;55.650;37.500;2022-07-06T19:29:33;23.06;66.69
70386;DHT22;57804;55.650;37.500;2022-07-06T19:32:02;23.02;66.87
70386;DHT22;57804;55.650;37.500;2022-07-06T19:34:29;23.01;66.83
70386;DHT22;57804;55.650;37.500;2022-07-06T19:36:55;23.02;66.62
70386;DHT22;57804;55.650;37.500;2022-07-06T19:39:21;23.03;66.74
70386;DHT22;57804;55.650;37.500;2022-07-06T19:41:48;23.03;67.35
70386;DHT22;57804;55.650;37.500;2022-07-06T19:44:15;23.02;66.92
70386;DHT22;57804;55.650;37.500;2022-07-06T19:46:42;22.99;67.61
70386;DHT22;57804;55.650;37.500;2022-07-06T19:49:11;22.99;67.81
70386;DHT22;57804;55.650;37.500;2022-07-06T19:51:37;22.99;68.03
70386;DHT22;57804;55.650;37.500;2022-07-06T19:54:04;22.95;68.11
70386;DHT22;57804;55.650;37.500;2022-07-06T19:56:30;22.91;68.24
70386;DHT22;57804;55.650;37.500;2022-07-06T19:58:57;22.94;68.42
70386;DHT22;57804;55.650;37.500;2022-07-06T20:01:24;22.92;68.75
70386;DHT22;57804;55.650;37.500;2022-07-06T20:03:50;22.92;68.65
70386;DHT22;57804;55.650;37.500;2022-07-06T20:06:16;22.92;68.84
70386;DHT22;57804;55.650;37.500;2022-07-06T20:08:42;22.94;68.74
70386;DHT22;57804;55.650;37.500;2022-07-06T20:11:15;22.94;68.68
70386;DHT22;57804;55.650;37.500;2022-07-06T20:13:41;22.94;69.01
70386;DHT22;57804;55.650;37.500;2022-07-06T20:16:07;22.95;69.04
70386;DHT22;57804;55.650;37.500;2022-07-06T20:18:34;22.98;68.96
70386;DHT22;57804;55.650;37.500;2022-07-06T20:21:00;22.96;69.08
70386;DHT22;57804;55.650;37.500;2022-07-06T20:23:27;22.98;69.19
70386;DHT22;57804;55.650;37.500;2022-07-06T20:25:53;23.01;69.43
70386;DHT22;57804;55.650;37.500;2022-07-06T20:28:20;23.02;69.65
70386;DHT22;57804;55.650;37.500;2022-07-06T20:30:46;23.01;69.70
70386;DHT22;57804;55.650;37.500;2022-07-06T20:33:13;23.01;69.79
70386;DHT22;57804;55.650;37.500;2022-07-06T20:35:39;23.03;69.77
70386;DHT22;57804;55.650;37.500;2022-07-06T20:38:05;23.03;70.01
70386;DHT22;57804;55.650;37.500;2022-07-06T20:40:31;23.06;69.75
70386;DHT22;57804;55.650;37.500;2022-07-06T20:42:58;23.09;69.92
70386;DHT22;57804;55.650;37.500;2022-07-06T20:45:24;23.05;69.80
70386;DHT22;57804;55.650;37.500;2022-07-06T20:47:50;23.09;69.59
70386;DHT22;57804;55.650;37.500;2022-07-06T20:50:17;23.09;69.47
70386;DHT22;57804;55.650;37.500;2022-07-06T20:52:43;23.12;69.31
70386;DHT22;57804;55.650;37.500;2022-07-06T20:55:09;23.13;69.25
70386;DHT22;57804;55.650;37.500;2022-07-06T20:57:36;23.13;69.06
70386;DHT22;57804;55.650;37.500;2022-07-06T21:00:05;23.18;68.97
70386;DHT22;57804;55.650;37.500;2022-07-06T21:02:31;23.19;69.03
70386;DHT22;57804;55.650;37.500;2022-07-06T21:04:58;23.20;68.82
70386;DHT22;57804;55.650;37.500;2022-07-06T21:07:24;23.22;68.75
70386;DHT22;57804;55.650;37.500;2022-07-06T21:09:50;23.23;68.75
70386;DHT22;57804;55.650;37.500;2022-07-06T21:12:18;23.23;68.78
70386;DHT22;57804;55.650;37.500;2022-07-06T21:14:44;23.24;68.82
70386;DHT22;57804;55.650;37.500;2022-07-06T21:17:10;23.26;69.00
70386;DHT22;57804;55.650;37.500;2022-07-06T21:19:36;23.30;69.15
70386;DHT22;57804;55.650;37.500;2022-07-06T21:22:03;23.26;69.32
70386;DHT22;57804;55.650;37.500;2022-07-06T21:24:29;23.26;69.61
70386;DHT22;57804;55.650;37.500;2022-07-06T21:26:56;23.26;69.71
70386;DHT22;57804;55.650;37.500;2022-07-06T21:29:22;23.24;69.85
70386;DHT22;57804;55.650;37.500;2022-07-06T21:31:48;23.23;70.00
70386;DHT22;57804;55.650;37.500;2022-07-06T21:34:15;23.24;70.12
70386;DHT22;57804;55.650;37.500;2022-07-06T21:36:41;23.22;70.25
70386;DHT22;57804;55.650;37.500;2022-07-06T21:39:08;23.20;70.39
70386;DHT22;57804;55.650;37.500;2022-07-06T21:41:34;23.20;70.52
70386;DHT22;57804;55.650;37.500;2022-07-06T21:44:00;23.19;70.78
70386;DHT22;57804;55.650;37.500;2022-07-06T21:46:27;23.16;70.89
70386;DHT22;57804;55.650;37.500;2022-07-06T21:48:53;23.13;71.01
70386;DHT22;57804;55.650;37.500;2022-07-06T21:51:19;23.06;71.19
70386;DHT22;57804;55.650;37.500;2022-07-06T21:53:45;23.09;71.34
70386;DHT22;57804;55.650;37.500;2022-07-06T21:56:12;23.05;71.31
70386;DHT22;57804;55.650;37.500;2022-07-06T21:58:38;23.02;71.44
70386;DHT22;57804;55.650;37.500;2022-07-06T22:01:05;22.98;71.47
70386;DHT22;57804;55.650;37.500;2022-07-06T22:03:31;23.01;71.45
70386;DHT22;57804;55.650;37.500;2022-07-06T22:05:58;22.98;71.26
70386;DHT22;57804;55.650;37.500;2022-07-06T22:08:24;22.98;71.21
70386;DHT22;57804;55.650;37.500;2022-07-06T22:10:50;22.99;71.15
70386;DHT22;57804;55.650;37.500;2022-07-06T22:13:16;22.96;71.29
70386;DHT22;57804;55.650;37.500;2022-07-06T22:16:01;22.94;71.34
70386;DHT22;57804;55.650;37.500;2022-07-06T22:18:28;22.94;71.47
70386;DHT22;57804;55.650;37.500;2022-07-06T22:20:54;22.90;71.61
70386;DHT22;57804;55.650;37.500;2022-07-06T22:23:21;22.90;70.93
70386;DHT22;57804;55.650;37.500;2022-07-06T22:25:47;22.91;70.38
70386;DHT22;57804;55.650;37.500;2022-07-06T22:28:16;22.92;69.82
70386;DHT22;57804;55.650;37.500;2022-07-06T22:30:42;22.92;69.67
70386;DHT22;57804;55.650;37.500;2022-07-06T22:33:08;22.92;69.48
70386;DHT22;57804;55.650;37.500;2022-07-06T22:35:35;22.92;69.27
70386;DHT22;57804;55.650;37.500;2022-07-06T22:38:01;22.94;69.12
70386;DHT22;57804;55.650;37.500;2022-07-06T22:40:27;22.92;68.96
70386;DHT22;57804;55.650;37.500;2022-07-06T22:43:13;22.90;69.08
70386;DHT22;57804;55.650;37.500;2022-07-06T22:45:39;22.88;69.11
70386;DHT22;57804;55.650;37.500;2022-07-06T22:48:05;22.85;68.96
70386;DHT22;57804;55.650;37.500;2022-07-06T22:50:31;22.84;68.93
70386;DHT22;57804;55.650;37.500;2022-07-06T22:52:58;22.88;68.85
70386;DHT22;57804;55.650;37.500;2022-07-06T22:55:24;22.84;68.86
70386;DHT22;57804;55.650;37.500;2022-07-06T22:57:50;22.84;68.96
70386;DHT22;57804;55.650;37.500;2022-07-06T23:00:17;22.84;69.08
70386;DHT22;57804;55.650;37.500;2022-07-06T23:02:43;22.81;69.34
70386;DHT22;57804;55.650;37.500;2022-07-06T23:05:12;22.82;69.59
70386;DHT22;57804;55.650;37.500;2022-07-06T23:07:38;22.85;69.81
70386;DHT22;57804;55.650;37.500;2022-07-06T23:10:05;22.88;69.86
70386;DHT22;57804;55.650;37.500;2022-07-06T23:12:32;22.88;69.92
70386;DHT22;57804;55.650;37.500;2022-07-06T23:14:59;22.88;70.09
70386;DHT22;57804;55.650;37.500;2022-07-06T23:17:25;22.87;70.15
70386;DHT22;57804;55.650;37.500;2022-07-06T23:19:51;22.87;70.23
70386;DHT22;57804;55.650;37.500;2022-07-06T23:22:18;22.88;70.25
70386;DHT22;57804;55.650;37.500;2022-07-06T23:24:44;22.87;70.33
70386;DHT22;57804;55.650;37.500;2022-07-06T23:27:10;22.91;70.40
70386;DHT22;57804;55.650;37.500;2022-07-06T23:29:36;22.88;70.42
70386;DHT22;57804;55.650;37.500;2022-07-06T23:32:04;22.88;70.46
70386;DHT22;57804;55.650;37.500;2022-07-06T23:34:30;22.87;70.53
70386;DHT22;57804;55.650;37.500;2022-07-06T23:36:56;22.87;70.55
70386;DHT22;57804;55.650;37.500;2022-07-06T23:39:24;22.88;70.49
70386;DHT22;57804;55.650;37.500;2022-07-06T23:41:51;22.88;70.46
70386;DHT22;57804;55.650;37.500;2022-07-06T23:44:22;22.91;70.42
70386;DHT22;57804;55.650;37.500;2022-07-06T23:46:49;22.94;70.45
70386;DHT22;57804;55.650;37.500;2022-07-06T23:49:15;22.90;70.37
70386;DHT22;57804;55.650;37.500;2022-07-06T23:51:42;22.88;70.45
70386;DHT22;57804;55.650;37.500;2022-07-06T23:54:08;22.90;70.48
70386;DHT22;57804;55.650;37.500;2022-07-06T23:56:37;22.88;70.30
70386;DHT22;57804;55.650;37.500;2022-07-06T23:59:03;22.90;70.35
